A- A+ FrançaisEnglishEspañol中国

le plus proche LFNA Gap-Tallard LFBT Tarbes-Lourdes-PyrénéesLFPT Pontoise-Cormeilles-En-VexinLFLW Aurillac

manche à air

La météo aéronautique pour les pilotes, la préparation du vol avec les METAR (METeorological Aerodrome Report, message d'observation des conditions météorologiques pour l'aviation) et Les TAF (Terminal Aerodrome Forecast : message de prévision à court terme des conditions météorologiques pour l'aviation). Et les autres ressources comme les VAC (Visual Approch Chart) et les NOTAM (Notice To Airman) pour préprer les vols.

Aéroport Biskra (Mohamed Khider?) (Algérie) / OACI DAUB/ IATA BSK

L'altitude de l'aéroport Biskra (Mohamed Khider?) est de 88 m=289 ft. Il est situé à proximité de Biskra (Algérie). La météo générale à 5 jours est disponible pour Biskra situé à 6.4 km.

METAR de l'aéroport Biskra (Mohamed Khider?) - DAUB

DAUB 222000Z 29014KT CAVOK 21/02 Q1019

Décodage du METAR de l'aéroport Biskra (Mohamed Khider?) (DZ)

METAR émis par DAUB le dimanche 22 décembre 2019 à 20:00 heure TU. Attention ce METAR est obsolète car il a été émis il y a 10 heure et 29 minutes.

La visibilité est de supérieure à 10 km=supérieure à 6.2 sm.

La température est de 21°C=70 °F et le point rosée est de 2°C=36 °F . Ce qui correspond à 28% d'humidité relative.

Le QNH est de 1019 hPa=30.09 inHg

Vent de 14 kt=26 km/h, orienté à 290°.

Pas de nuages.

TAF de l'aéroport Biskra (Mohamed Khider?) - DAUB

DAUB 221700Z 2218/2318 32020KT 9999 FEW040 TEMPO 2218/2224 31020G40KT 2000 DRSA BECMG 2220/2222 25012KT

DAUB 221700Z 2218/2318 32020KT 9999 quelques nuages à 040 temporairement 2218/2224 31020G40KT 2000 DRSA devenant 2220/2222 25012KT

Aéroport à proximité de Biskra (Mohamed Khider?)

Météo générale à 5 jours à Biskra (6.4 km)DABT Aéroport Batna (119 km)DAAD Aéroport Bou Saada (152 km)DAAM Aéroport Telergma (157 km)DAAS Aéroport Setif Ain Arnat (158 km)DAUO Aéroport El Qued Guemar (172 km)DABC Aéroport Constantine Ain El Bey (183 km)

Vue aérienne de l'aéroport Biskra (Mohamed Khider?)

NOTAM de l'aéroport Biskra (Mohamed Khider?)

Les NOTAM sont fournis sans aucune garantie de leur actualité. Le pilote est le seul responsable de la vérification de sa validité avant de l'utiliser opérationnellement pour préparer un vol ou l'utiliser lors de sa navigation.

Pas de NOTAM

Sources des données